Time;durP1;ratioP1;P1;durP2;ratioP2;P2;SDS_P1;SDS_P2;PMS_P1;PMS_P2;Temp;Humidity;BMP_temperature;BMP_pressure;BME280_temperature;BME280_humidity;BME280_pressure;Samples;Min_cycle;Max_cycle;Signal;HPM_P1;HPM_P2
2022/04/10 00:00:40;;;;;;;6.53;3.22;;;4.10;99.90;;;;;;4957102;28;20321;-87
2022/04/10 00:03:06;;;;;;;5.72;3.03;;;4.10;99.90;;;;;;4957819;28;20037;-87
2022/04/10 00:05:31;;;;;;;;;;;4.10;99.90;;;;;;4958666;28;20027;-84
2022/04/10 00:07:57;;;;;;;6.60;2.25;;;4.10;99.90;;;;;;4958161;28;19917;-86
2022/04/10 00:10:23;;;;;;;;;;;4.10;99.90;;;;;;4958484;28;20050;-86
2022/04/10 00:12:48;;;;;;;4.57;1.98;;;4.20;99.90;;;;;;4975352;28;20363;-87
2022/04/10 00:15:14;;;;;;;;;;;4.20;99.90;;;;;;4975522;28;20031;-87
2022/04/10 00:17:41;;;;;;;4.53;2.45;;;4.20;99.90;;;;;;4957957;28;19918;-87
2022/04/10 00:20:07;;;;;;;4.50;1.90;;;4.20;99.90;;;;;;4975201;28;20455;-87
2022/04/10 00:22:44;;;;;;;3.30;1.80;;;4.40;99.90;;;;;;4957675;28;20399;-86
2022/04/10 00:25:12;;;;;;;13.40;5.82;;;4.50;99.90;;;;;;4990312;28;20038;-87
2022/04/10 00:27:38;;;;;;;12.10;5.35;;;4.40;99.90;;;;;;4957997;28;20062;-87
2022/04/10 00:30:04;;;;;;;;;;;4.50;99.90;;;;;;4958330;28;20494;-87
2022/04/10 00:32:30;;;;;;;9.15;4.05;;;4.50;99.90;;;;;;4974803;28;20057;-87
2022/04/10 00:34:55;;;;;;;;;;;4.50;99.90;;;;;;4977172;28;20062;-86
2022/04/10 00:37:21;;;;;;;11.98;5.30;;;4.50;99.90;;;;;;4957573;28;19914;-87
2022/04/10 00:39:46;;;;;;;;;;;4.50;99.90;;;;;;4958110;28;20026;-86
2022/04/10 00:42:12;;;;;;;19.17;7.05;;;4.50;99.90;;;;;;4957399;28;19961;-87
2022/04/10 00:44:38;;;;;;;;;;;4.50;99.90;;;;;;4957878;28;20042;-86
2022/04/10 00:47:05;;;;;;;7.47;3.17;;;4.50;99.90;;;;;;4974819;28;20271;-87
2022/04/10 00:49:31;;;;;;;5.07;2.58;;;4.50;99.90;;;;;;4957716;28;20062;-87
2022/04/10 00:51:56;;;;;;;;;;;4.50;99.90;;;;;;4974864;28;20069;-87
2022/04/10 00:54:28;;;;;;;7.05;2.65;;;4.50;99.90;;;;;;4957421;28;20362;-86
2022/04/10 00:56:55;;;;;;;5.97;2.50;;;4.50;99.90;;;;;;4989465;28;20027;-87
2022/04/10 00:59:21;;;;;;;6.70;3.88;;;4.50;99.90;;;;;;4974568;28;20037;-86
2022/04/10 01:01:47;;;;;;;;;;;4.50;99.90;;;;;;4957476;28;20031;-87
2022/04/10 01:04:13;;;;;;;9.00;4.13;;;4.50;99.90;;;;;;4957031;28;19906;-87
2022/04/10 01:06:39;;;;;;;10.60;5.15;;;4.50;99.90;;;;;;4957463;28;20019;-86
2022/04/10 01:09:05;;;;;;;;;;;4.50;99.90;;;;;;4989523;28;20035;-86
2022/04/10 01:11:33;;;;;;;13.38;5.65;;;4.40;99.90;;;;;;4958763;28;20378;-86
2022/04/10 01:14:00;;;;;;;62.30;26.90;;;4.40;99.90;;;;;;4963392;28;20038;-87
2022/04/10 01:16:27;;;;;;;59.08;27.27;;;4.50;99.90;;;;;;4963541;28;20027;-86
2022/04/10 01:18:53;;;;;;;14.10;6.45;;;4.40;99.90;;;;;;4980757;28;20525;-86
2022/04/10 01:21:23;;;;;;;;;;;4.40;99.90;;;;;;4964043;28;20035;-86
2022/04/10 01:23:51;;;;;;;5.88;2.88;;;4.40;99.90;;;;;;4963443;28;19953;-87
2022/04/10 01:26:16;;;;;;;6.93;3.47;;;4.40;99.90;;;;;;4963186;28;20042;-87
2022/04/10 01:28:55;;;;;;;;;;;4.50;99.90;;;;;;4981155;28;20430;-86
2022/04/10 01:31:21;;;;;;;6.97;2.75;;;4.40;99.90;;;;;;4963351;28;19913;-86
2022/04/10 01:33:46;;;;;;;;;;;4.40;99.90;;;;;;4963815;28;20030;-87
2022/04/10 01:36:13;;;;;;;3.92;2.42;;;4.40;99.90;;;;;;4963357;28;19960;-86
2022/04/10 01:38:40;;;;;;;5.07;2.58;;;4.40;99.90;;;;;;4962863;28;20039;-87
2022/04/10 01:41:05;;;;;;;9.25;3.20;;;4.40;99.90;;;;;;4963317;28;20033;-86
2022/04/10 01:43:31;;;;;;;;;;;4.40;99.90;;;;;;4963803;28;20047;-86
2022/04/10 01:45:56;;;;;;;6.75;3.35;;;4.40;99.90;;;;;;4963381;28;19956;-86
2022/04/10 01:48:22;;;;;;;;;;;4.40;99.90;;;;;;4963860;28;20088;-86
2022/04/10 01:50:47;;;;;;;5.22;2.60;;;4.40;99.90;;;;;;4963264;28;20255;-86
2022/04/10 01:53:13;;;;;;;;;;;4.40;99.90;;;;;;4963593;28;20487;-87
2022/04/10 01:55:38;;;;;;;11.30;4.05;;;4.40;99.90;;;;;;4963367;28;20398;-86
2022/04/10 01:58:04;;;;;;;;;;;4.40;99.90;;;;;;4963700;28;20165;-85
2022/04/10 02:00:30;;;;;;;8.52;3.17;;;4.30;99.90;;;;;;4963380;28;19910;-87
2022/04/10 02:02:55;;;;;;;6.03;3.33;;;4.30;99.90;;;;;;4962998;28;20039;-86
2022/04/10 02:05:21;;;;;;;6.57;3.25;;;4.30;99.90;;;;;;4963233;28;20081;-87
2022/04/10 02:07:46;;;;;;;;;;;4.30;99.90;;;;;;4995960;28;20054;-86
2022/04/10 02:10:12;;;;;;;9.98;4.03;;;4.30;99.90;;;;;;4979181;28;20278;-86
2022/04/10 02:12:38;;;;;;;7.75;4.00;;;4.30;99.90;;;;;;4962048;28;20058;-85
2022/04/10 02:15:03;;;;;;;;;;;4.30;99.90;;;;;;4963653;28;20495;-87
2022/04/10 02:17:29;;;;;;;8.57;3.63;;;4.30;99.90;;;;;;4963109;28;19914;-86
2022/04/10 02:19:54;;;;;;;;;;;4.30;99.90;;;;;;4963196;28;20027;-85
2022/04/10 02:22:21;;;;;;;16.75;7.97;;;4.30;99.90;;;;;;4962851;28;19913;-86
2022/04/10 02:24:46;;;;;;;18.35;8.50;;;4.30;99.90;;;;;;4959052;28;20085;-86
2022/04/10 02:27:12;;;;;;;;;;;4.20;99.90;;;;;;4960277;28;20035;-86
2022/04/10 02:29:37;;;;;;;7.72;2.67;;;4.20;99.90;;;;;;4960177;28;20305;-86
2022/04/10 02:32:03;;;;;;;;;;;4.20;99.90;;;;;;4960115;28;20026;-87
2022/04/10 02:34:29;;;;;;;11.73;5.63;;;4.20;99.90;;;;;;4959748;28;19913;-86
2022/04/10 02:36:54;;;;;;;;;;;4.10;99.90;;;;;;4960064;28;20041;-85
2022/04/10 02:39:20;;;;;;;16.92;5.25;;;4.10;99.90;;;;;;4959847;28;20004;-86
2022/04/10 02:41:45;;;;;;;;;;;4.00;99.90;;;;;;4960049;28;20051;-86
2022/04/10 02:44:11;;;;;;;7.78;3.85;;;4.10;99.90;;;;;;4959779;28;19972;-87
2022/04/10 02:46:37;;;;;;;5.95;3.67;;;4.00;99.90;;;;;;4959517;28;20114;-86
2022/04/10 02:49:02;;;;;;;;;;;4.00;99.90;;;;;;4959716;28;20668;-86
2022/04/10 02:51:28;;;;;;;5.90;3.00;;;3.90;99.90;;;;;;4959363;28;19914;-86
2022/04/10 02:53:53;;;;;;;5.05;2.83;;;3.90;99.90;;;;;;4959474;28;20089;-87
2022/04/10 02:56:19;;;;;;;;;;;3.90;99.90;;;;;;4959897;28;20064;-87
2022/04/10 02:58:44;;;;;;;11.18;4.80;;;3.90;99.90;;;;;;4959479;28;19938;-87
2022/04/10 03:01:10;;;;;;;;;;;3.90;99.90;;;;;;4977032;28;20030;-86
2022/04/10 03:03:35;;;;;;;15.15;6.43;;;3.80;99.90;;;;;;4959071;28;19906;-87
2022/04/10 03:06:01;;;;;;;63.80;31.23;;;3.80;99.90;;;;;;4959424;28;20034;-86
2022/04/10 03:08:27;;;;;;;42.60;18.15;;;3.80;99.90;;;;;;4959314;28;20033;-88
2022/04/10 03:10:52;;;;;;;;;;;3.90;99.90;;;;;;4959764;28;20418;-86
2022/04/10 03:13:18;;;;;;;26.30;12.68;;;3.90;99.90;;;;;;4959370;28;19928;-87
2022/04/10 03:15:43;;;;;;;17.30;8.02;;;3.90;99.90;;;;;;4959115;28;20026;-87
2022/04/10 03:18:09;;;;;;;;;;;3.80;99.90;;;;;;4959597;28;20046;-86
2022/04/10 03:20:34;;;;;;;10.48;4.35;;;3.70;99.90;;;;;;4958892;28;19971;-86
2022/04/10 03:23:00;;;;;;;;;;;3.70;99.90;;;;;;4959491;28;20030;-86
2022/04/10 03:25:26;;;;;;;3.70;1.65;;;3.70;99.90;;;;;;4958272;28;19906;-87
2022/04/10 03:27:51;;;;;;;;;;;3.70;99.90;;;;;;4959308;28;20015;-87
2022/04/10 03:30:17;;;;;;;8.65;3.85;;;3.70;99.90;;;;;;4958762;28;19953;-86
2022/04/10 03:32:42;;;;;;;;;;;3.70;99.90;;;;;;4959194;28;20470;-87
2022/04/10 03:35:08;;;;;;;6.00;3.55;;;3.70;99.90;;;;;;4958595;28;19906;-87
2022/04/10 03:37:34;;;;;;;7.25;4.00;;;3.70;99.90;;;;;;4958742;28;20517;-88
2022/04/10 03:39:59;;;;;;;;;;;3.60;99.90;;;;;;4958986;28;20042;-87
2022/04/10 03:42:25;;;;;;;10.00;4.07;;;3.60;99.90;;;;;;4958458;28;19910;-86
2022/04/10 03:44:51;;;;;;;;;;;3.60;99.90;;;;;;4976475;28;20062;-87
2022/04/10 03:47:16;;;;;;;10.07;5.30;;;3.60;99.90;;;;;;4958514;28;20377;-87
2022/04/10 03:49:42;;;;;;;;;;;3.60;99.90;;;;;;4960240;28;20130;-87
2022/04/10 03:52:08;;;;;;;10.77;2.60;;;3.60;99.90;;;;;;4958734;28;19949;-87
2022/04/10 03:54:33;;;;;;;;;;;3.70;99.90;;;;;;4958603;28;20034;-86
2022/04/10 03:56:59;;;;;;;4.38;1.98;;;3.70;99.90;;;;;;4958675;28;19960;-86
2022/04/10 03:59:24;;;;;;;4.68;1.83;;;3.70;99.90;;;;;;4958469;28;20487;-86
2022/04/10 04:01:50;;;;;;;4.88;3.03;;;3.70;99.90;;;;;;4958126;28;20101;-87
2022/04/10 04:04:16;;;;;;;;;;;3.70;99.90;;;;;;4958654;28;20027;-86
2022/04/10 04:06:42;;;;;;;5.60;2.13;;;3.70;99.90;;;;;;4978015;28;19933;-87
2022/04/10 04:09:07;;;;;;;;;;;3.70;99.90;;;;;;4958393;28;20023;-87
2022/04/10 04:11:33;;;;;;;8.52;2.70;;;3.70;99.90;;;;;;4958068;28;19992;-87
2022/04/10 04:13:58;;;;;;;;;;;3.70;99.90;;;;;;4958255;28;20078;-85
2022/04/10 04:16:24;;;;;;;3.72;2.38;;;3.70;99.90;;;;;;4957926;28;19906;-86
2022/04/10 04:18:49;;;;;;;;;;;3.60;99.90;;;;;;4958590;28;20503;-86
2022/04/10 04:21:15;;;;;;;5.80;3.50;;;3.70;99.90;;;;;;4957918;28;19906;-87
2022/04/10 04:23:41;;;;;;;9.57;3.55;;;3.80;99.90;;;;;;4975113;28;20518;-86
2022/04/10 04:26:06;;;;;;;4.20;2.97;;;3.80;99.90;;;;;;4958479;28;20023;-86
2022/04/10 04:28:35;;;;;;;;;;;3.80;99.90;;;;;;4958419;28;20049;-86
2022/04/10 04:31:01;;;;;;;3.90;2.38;;;3.90;99.90;;;;;;4957712;28;19910;-86
2022/04/10 04:33:26;;;;;;;;;;;4.00;99.90;;;;;;4958622;28;20030;-87
2022/04/10 04:35:52;;;;;;;6.18;2.17;;;4.00;99.90;;;;;;4957865;28;19906;-86
2022/04/10 04:38:17;;;;;;;;;;;4.10;99.90;;;;;;4958319;28;20038;-86
2022/04/10 04:40:43;;;;;;;4.72;2.50;;;4.20;99.90;;;;;;4957206;28;19906;-86
2022/04/10 04:43:09;;;;;;;;;;;4.50;99.90;;;;;;4956651;28;20529;-86
2022/04/10 04:45:35;;;;;;;5.00;2.05;;;4.70;99.90;;;;;;4957498;28;19912;-87
2022/04/10 04:48:00;;;;;;;;;;;4.70;99.90;;;;;;4974574;28;20105;-87
2022/04/10 04:50:27;;;;;;;4.97;2.20;;;4.90;99.90;;;;;;4957777;28;20393;-87
2022/04/10 04:52:52;;;;;;;;;;;5.10;99.90;;;;;;4957829;28;20029;-87
2022/04/10 04:55:18;;;;;;;3.83;2.63;;;5.40;99.90;;;;;;4958722;28;19906;-86
2022/04/10 04:57:44;;;;;;;5.40;1.67;;;5.90;99.90;;;;;;4974994;28;20512;-87
2022/04/10 05:00:11;;;;;;;;;;;6.70;99.90;;;;;;4990578;28;20038;-85
2022/04/10 05:02:37;;;;;;;3.33;1.55;;;7.70;99.90;;;;;;4957513;28;19996;-87
2022/04/10 05:05:03;;;;;;;4.72;1.58;;;8.60;96.00;;;;;;4957092;28;20447;-87
2022/04/10 05:07:28;;;;;;;;;;;9.00;94.60;;;;;;4957648;28;20062;-87
2022/04/10 05:09:54;;;;;;;3.42;1.45;;;9.20;80.80;;;;;;4957633;28;19906;-87
2022/04/10 05:12:19;;;;;;;;;;;9.20;85.00;;;;;;4974437;28;20027;-87
2022/04/10 05:14:46;;;;;;;4.80;1.45;;;9.00;89.80;;;;;;4974459;28;19997;-87
2022/04/10 05:17:12;;;;;;;5.28;2.00;;;8.90;92.40;;;;;;4957314;28;20037;-87
2022/04/10 05:19:38;;;;;;;12.95;8.23;;;9.10;90.70;;;;;;4957295;28;20499;-88
2022/04/10 05:22:03;;;;;;;;;;;9.10;90.10;;;;;;4957435;28;20077;-87
2022/04/10 05:24:29;;;;;;;5.68;3.33;;;9.30;87.90;;;;;;4956944;28;19906;-88
2022/04/10 05:26:55;;;;;;;;;;;10.10;82.90;;;;;;4957735;28;20076;-88
2022/04/10 05:29:20;;;;;;;9.93;4.60;;;11.00;73.00;;;;;;4957240;28;19914;-89
2022/04/10 05:31:46;;;;;;;;;;;11.40;71.10;;;;;;4957438;28;20027;-89
2022/04/10 05:34:11;;;;;;;4.75;1.92;;;11.80;64.10;;;;;;4957136;28;19913;-87
2022/04/10 05:36:37;;;;;;;;;;;12.10;66.10;;;;;;4957674;28;20023;-88
2022/04/10 05:39:02;;;;;;;4.47;1.40;;;12.60;63.10;;;;;;4957239;28;20370;-89
2022/04/10 05:41:28;;;;;;;;;;;13.00;62.90;;;;;;4974824;28;20061;-89
2022/04/10 05:43:54;;;;;;;4.03;1.65;;;13.40;59.10;;;;;;4974084;28;19921;-89
2022/04/10 05:46:19;;;;;;;8.18;1.83;;;13.60;60.50;;;;;;4957098;28;20034;-89
2022/04/10 05:48:46;;;;;;;8.05;1.17;;;14.00;58.70;;;;;;4957159;28;20034;-89
2022/04/10 05:51:11;;;;;;;4.78;1.80;;;14.50;54.90;;;;;;4956859;28;20086;-89
2022/04/10 05:53:37;;;;;;;3.03;1.65;;;14.70;54.20;;;;;;4957018;28;20435;-89
2022/04/10 05:56:03;;;;;;;2.55;1.42;;;14.80;52.90;;;;;;4956808;28;20030;-89
2022/04/10 05:58:28;;;;;;;4.03;1.38;;;15.00;52.70;;;;;;4957238;28;20035;-90
2022/04/10 06:00:55;;;;;;;3.42;1.15;;;15.40;52.10;;;;;;4960395;28;20061;-90
2022/04/10 06:03:21;;;;;;;3.33;1.73;;;15.80;50.30;;;;;;4960958;28;20038;-90
2022/04/10 06:05:47;;;;;;;2.63;1.00;;;16.00;50.10;;;;;;4977652;28;20031;-90
2022/04/10 06:08:12;;;;;;;2.13;0.80;;;16.30;47.70;;;;;;4960355;28;20038;-90
2022/04/10 06:10:38;;;;;;;4.97;1.10;;;16.70;47.10;;;;;;4977605;28;20103;-90
2022/04/10 06:13:10;;;;;;;3.58;1.05;;;16.90;45.20;;;;;;4977377;28;20423;-91
2022/04/10 06:15:36;;;;;;;3.38;0.80;;;17.00;44.10;;;;;;4953032;28;20112;-90
2022/04/10 06:18:02;;;;;;;3.35;0.90;;;17.30;43.40;;;;;;4960522;28;20487;-90
2022/04/10 06:20:27;;;;;;;2.13;0.70;;;17.30;42.10;;;;;;4977645;28;20574;-89
2022/04/10 06:22:53;;;;;;;5.45;1.05;;;16.90;41.80;;;;;;4977396;28;20407;-90
2022/04/10 06:25:19;;;;;;;2.85;0.88;;;16.80;42.20;;;;;;4959967;28;20500;-89
2022/04/10 06:27:44;;;;;;;2.28;0.90;;;16.80;42.40;;;;;;4960146;28;20027;-90
2022/04/10 06:30:10;;;;;;;2.22;1.10;;;17.30;41.80;;;;;;4960381;28;20031;-90
2022/04/10 06:32:36;;;;;;;4.13;0.75;;;17.70;40.60;;;;;;4976848;28;20027;-90
2022/04/10 06:35:02;;;;;;;1.58;0.85;;;18.20;39.80;;;;;;4960067;28;20050;-90
2022/04/10 06:37:27;;;;;;;3.97;1.27;;;19.00;39.10;;;;;;4960054;28;20499;-90
2022/04/10 06:39:53;;;;;;;2.78;0.60;;;19.50;37.40;;;;;;4960012;28;20129;-90
2022/04/10 06:42:19;;;;;;;2.22;0.80;;;19.50;35.80;;;;;;4960222;28;20047;-90
2022/04/10 06:44:44;;;;;;;4.72;0.82;;;19.40;35.70;;;;;;4960233;28;20030;-90
2022/04/10 06:47:10;;;;;;;4.10;0.90;;;19.60;35.20;;;;;;4976953;28;20522;-90
2022/04/10 06:49:36;;;;;;;1.92;0.90;;;19.70;33.10;;;;;;4959814;28;20403;-90
2022/04/10 06:52:01;;;;;;;2.63;0.60;;;19.80;33.50;;;;;;4959781;28;20712;-90
2022/04/10 06:54:27;;;;;;;2.58;1.17;;;19.50;32.90;;;;;;4962509;28;20510;-90
2022/04/10 06:56:53;;;;;;;3.70;1.00;;;20.10;33.30;;;;;;4981193;28;20407;-90
2022/04/10 06:59:18;;;;;;;3.10;1.13;;;19.20;30.70;;;;;;4959382;28;20037;-87
2022/04/10 07:01:44;;;;;;;3.17;1.17;;;19.50;33.80;;;;;;4957836;28;20023;-88
2022/04/10 07:04:09;;;;;;;2.45;1.10;;;20.10;36.30;;;;;;4976677;28;20042;-87
2022/04/10 07:06:35;;;;;;;1.95;0.90;;;20.50;35.30;;;;;;4958855;28;20479;-88
2022/04/10 07:09:01;;;;;;;4.40;1.17;;;20.70;35.90;;;;;;4976429;28;20037;-88
2022/04/10 07:11:26;;;;;;;4.32;1.67;;;21.00;34.60;;;;;;4958978;28;20027;-89
2022/04/10 07:13:52;;;;;;;9.63;3.08;;;21.00;34.50;;;;;;4975265;28;20062;-88
2022/04/10 07:16:18;;;;;;;5.20;1.90;;;21.40;34.10;;;;;;4975531;28;20027;-88
2022/04/10 07:18:43;;;;;;;6.43;1.30;;;21.60;34.20;;;;;;4959165;28;20030;-88
2022/04/10 07:21:09;;;;;;;2.42;0.80;;;21.70;33.00;;;;;;4976396;28;20057;-88
2022/04/10 07:23:44;;;;;;;5.53;2.30;;;21.70;32.50;;;;;;4958960;28;20118;-88
2022/04/10 07:26:11;;;;;;;29.00;8.77;;;21.60;32.90;;;;;;4976611;28;20033;-88
2022/04/10 07:28:40;;;;;;;4.38;1.77;;;21.80;31.80;;;;;;4959205;28;20034;-88
2022/04/10 07:31:10;;;;;;;11.23;4.05;;;22.10;32.00;;;;;;4976233;28;20031;-88
2022/04/10 07:33:36;;;;;;;6.65;2.67;;;22.50;31.50;;;;;;4976088;28;20491;-87
2022/04/10 07:36:03;;;;;;;6.65;1.00;;;23.00;30.90;;;;;;4976002;28;20031;-88
2022/04/10 07:38:28;;;;;;;3.22;0.80;;;23.40;29.50;;;;;;4958951;28;20113;-89
2022/04/10 07:40:54;;;;;;;2.22;0.90;;;23.40;29.70;;;;;;4990858;28;20078;-88
2022/04/10 07:43:20;;;;;;;3.25;1.42;;;23.30;29.50;;;;;;4990915;28;20058;-88
2022/04/10 07:48:30;;;;;;;4.18;1.45;;;23.90;28.90;;;;;;4976406;28;20054;-88
2022/04/10 07:50:57;;;;;;;8.00;2.78;;;24.00;28.70;;;;;;4958502;28;20014;-88
2022/04/10 07:53:23;;;;;;;3.60;1.27;;;24.00;27.90;;;;;;4958696;28;20448;-89
2022/04/10 07:55:49;;;;;;;9.90;2.67;;;24.30;27.30;;;;;;4958765;28;20081;-89
2022/04/10 07:58:14;;;;;;;2.55;0.98;;;23.80;27.20;;;;;;4959040;28;20031;-88
2022/04/10 08:00:40;;;;;;;3.58;1.20;;;23.80;28.00;;;;;;4958415;28;20042;-88
2022/04/10 08:03:06;;;;;;;2.80;1.00;;;23.30;27.70;;;;;;4958229;28;20460;-88
2022/04/10 08:05:32;;;;;;;5.15;1.67;;;23.00;27.80;;;;;;4961234;28;20062;-90
2022/04/10 08:07:57;;;;;;;3.67;1.23;;;22.30;27.40;;;;;;4976047;28;20045;-90
2022/04/10 08:10:24;;;;;;;3.00;1.45;;;21.80;28.50;;;;;;4958228;28;20076;-89
2022/04/10 08:12:50;;;;;;;5.05;1.50;;;21.40;28.70;;;;;;4977783;28;20030;-90
2022/04/10 08:15:16;;;;;;;2.70;0.90;;;21.50;28.40;;;;;;4958131;28;20407;-90
2022/04/10 08:17:42;;;;;;;1.92;0.95;;;21.70;28.50;;;;;;4975629;28;20034;-90
2022/04/10 08:20:09;;;;;;;2.63;0.70;;;22.00;28.10;;;;;;4958144;28;20026;-90
2022/04/10 08:22:39;;;;;;;2.05;0.75;;;22.10;27.60;;;;;;4957660;28;20050;-89
2022/04/10 08:25:12;;;;;;;1.52;0.75;;;21.50;28.70;;;;;;4990523;28;20506;-90
2022/04/10 08:27:38;;;;;;;2.28;0.90;;;21.30;29.80;;;;;;4990294;28;20490;-90
2022/04/10 08:30:08;;;;;;;3.05;0.90;;;21.60;28.20;;;;;;4957903;28;20027;-90
2022/04/10 08:32:38;;;;;;;3.92;0.70;;;21.20;27.90;;;;;;4975069;28;20019;-89
2022/04/10 08:35:05;;;;;;;2.70;0.70;;;20.60;28.30;;;;;;4958180;28;20027;-90
2022/04/10 08:37:30;;;;;;;5.40;1.00;;;19.50;29.20;;;;;;4957891;28;20095;-89
2022/04/10 08:39:56;;;;;;;2.38;0.70;;;18.80;30.00;;;;;;4961483;28;20583;-89
2022/04/10 08:42:21;;;;;;;2.25;0.90;;;18.60;31.30;;;;;;4960020;28;20483;-89
2022/04/10 08:44:47;;;;;;;2.17;0.68;;;18.60;31.30;;;;;;4957694;28;20035;-90
2022/04/10 08:47:20;;;;;;;3.20;0.85;;;19.30;31.30;;;;;;4958161;28;20027;-89
2022/04/10 08:49:50;;;;;;;3.67;1.10;;;19.80;30.50;;;;;;4974854;28;20034;-88
2022/04/10 08:52:17;;;;;;;1.15;0.52;;;20.40;30.20;;;;;;4975164;28;20023;-89
2022/04/10 08:54:44;;;;;;;2.75;0.93;;;20.90;29.40;;;;;;4974839;28;20026;-90
2022/04/10 08:57:10;;;;;;;7.13;2.22;;;21.10;30.40;;;;;;4957769;28;20019;-90
2022/04/10 08:59:36;;;;;;;3.38;0.95;;;21.60;29.30;;;;;;4957785;28;20041;-90
2022/04/10 09:02:02;;;;;;;7.05;1.08;;;21.70;29.80;;;;;;4957481;28;20023;-89
2022/04/10 09:04:28;;;;;;;3.50;0.90;;;21.00;29.60;;;;;;4957485;28;20173;-89
2022/04/10 09:07:03;;;;;;;2.55;1.20;;;20.30;28.90;;;;;;4957673;28;20018;-89
2022/04/10 09:09:30;;;;;;;7.50;1.05;;;20.00;29.90;;;;;;4957698;28;20039;-90
2022/04/10 09:11:56;;;;;;;4.47;0.90;;;20.30;31.10;;;;;;4957332;28;20499;-89
2022/04/10 09:14:35;;;;;;;10.73;2.10;;;21.10;29.60;;;;;;4957112;28;20482;-90
2022/04/10 09:17:18;;;;;;;2.13;1.10;;;21.80;29.80;;;;;;4957453;28;20031;-89
2022/04/10 09:19:52;;;;;;;6.82;1.70;;;22.40;29.60;;;;;;4957056;28;20027;-90
2022/04/10 09:22:38;;;;;;;8.30;1.55;;;23.10;28.10;;;;;;4957447;28;20034;-90
2022/04/10 09:25:13;;;;;;;2.33;1.03;;;23.40;28.40;;;;;;4957233;28;20039;-90
2022/04/10 09:27:49;;;;;;;3.58;0.80;;;23.10;28.20;;;;;;4957512;28;20308;-90
2022/04/10 09:30:17;;;;;;;5.43;1.27;;;21.80;28.40;;;;;;4958188;28;20117;-90
2022/04/10 09:32:51;;;;;;;2.72;1.00;;;20.60;30.10;;;;;;4959849;28;20558;-89
2022/04/10 09:35:24;;;;;;;2.60;0.80;;;20.50;28.00;;;;;;4961032;28;20031;-89
2022/04/10 09:37:54;;;;;;;5.07;0.90;;;20.10;29.20;;;;;;4960912;28;20042;-90
2022/04/10 09:40:23;;;;;;;1.45;0.80;;;20.20;28.20;;;;;;4961091;28;20023;-90
2022/04/10 09:43:07;;;;;;;3.65;1.30;;;20.10;27.10;;;;;;4976904;28;20055;-90
2022/04/10 09:45:40;;;;;;;6.28;0.88;;;20.10;28.80;;;;;;4959984;28;20038;-90
2022/04/10 09:48:28;;;;;;;3.38;1.08;;;19.50;29.00;;;;;;4992546;28;20035;-89
2022/04/10 09:50:59;;;;;;;1.80;0.93;;;19.20;28.70;;;;;;4992862;28;20376;-89
2022/04/10 09:53:26;;;;;;;4.93;1.00;;;18.40;29.50;;;;;;4961030;28;20023;-90
2022/04/10 09:55:56;;;;;;;2.90;0.90;;;18.60;29.70;;;;;;4977812;28;20035;-89
2022/04/10 09:58:22;;;;;;;3.15;1.60;;;18.40;29.20;;;;;;4960697;28;20062;-89
2022/04/10 10:00:51;;;;;;;3.50;0.80;;;17.70;29.30;;;;;;4977571;28;20109;-89
2022/04/10 10:03:18;;;;;;;2.08;1.00;;;17.60;29.90;;;;;;4978096;28;20038;-89
2022/04/10 10:05:44;;;;;;;4.03;0.73;;;17.40;28.90;;;;;;4978092;28;20042;-89
2022/04/10 10:08:09;;;;;;;3.95;0.70;;;17.60;28.60;;;;;;4977250;28;20542;-88
2022/04/10 10:10:40;;;;;;;3.10;1.27;;;17.90;29.50;;;;;;4977468;28;20031;-89
2022/04/10 10:13:07;;;;;;;2.30;0.88;;;18.30;29.30;;;;;;4960626;28;20035;-89
2022/04/10 10:15:36;;;;;;;3.38;0.95;;;18.00;28.70;;;;;;4977397;28;20037;-89
2022/04/10 10:18:05;;;;;;;5.40;0.82;;;18.20;30.50;;;;;;4960498;28;20093;-89
2022/04/10 10:20:31;;;;;;;2.55;0.90;;;18.90;31.40;;;;;;4960550;28;20110;-88
2022/04/10 10:23:08;;;;;;;2.60;1.13;;;18.80;29.80;;;;;;4960188;28;20031;-89
2022/04/10 10:25:40;;;;;;;;;;;18.90;30.50;;;;;;4963510;28;20026;-89
2022/04/10 10:28:27;;;;;;;5.32;1.60;;;18.90;30.90;;;;;;4961334;28;20291;-88
2022/04/10 10:31:18;;;;;;;3.35;0.68;;;18.70;31.90;;;;;;4975721;28;20045;-88
2022/04/10 10:33:54;;;;;;;2.45;0.75;;;18.40;32.30;;;;;;4977172;28;20074;-87
2022/04/10 10:36:23;;;;;;;3.60;0.85;;;18.10;33.20;;;;;;4960268;28;20027;-88
2022/04/10 10:38:54;;;;;;;3.65;0.70;;;18.00;33.60;;;;;;4960240;28;20537;-89
2022/04/10 10:41:19;;;;;;;2.83;0.70;;;18.00;33.10;;;;;;4959836;28;20027;-86
2022/04/10 10:43:46;;;;;;;1.60;0.47;;;17.80;32.10;;;;;;4975560;28;20106;-88
2022/04/10 10:46:22;;;;;;;2.13;0.73;;;17.30;31.00;;;;;;4991525;28;20023;-88
2022/04/10 10:48:50;;;;;;;1.17;0.55;;;16.70;30.70;;;;;;4975526;28;20042;-88
2022/04/10 10:51:16;;;;;;;5.43;0.50;;;16.50;30.10;;;;;;4976868;28;20402;-88
2022/04/10 10:53:44;;;;;;;1.60;0.60;;;16.20;30.30;;;;;;4975701;28;20027;-88
2022/04/10 10:56:33;;;;;;;1.55;0.50;;;16.10;33.40;;;;;;4992211;28;20564;-88
2022/04/10 10:59:34;;;;;;;4.97;1.10;;;16.50;32.80;;;;;;4959500;28;20372;-88
2022/04/10 11:02:05;;;;;;;2.45;0.50;;;16.60;31.50;;;;;;4975666;28;20134;-89
2022/04/10 11:04:37;;;;;;;2.20;0.60;;;16.40;30.40;;;;;;4976796;28;20031;-88
2022/04/10 11:07:30;;;;;;;5.38;0.60;;;16.30;32.00;;;;;;4959648;28;20427;-88
2022/04/10 11:09:56;;;;;;;3.15;0.70;;;16.20;35.00;;;;;;4951312;28;20058;-87
2022/04/10 11:12:28;;;;;;;3.15;0.93;;;16.40;36.00;;;;;;4975398;28;20023;-89
2022/04/10 11:14:56;;;;;;;2.45;0.60;;;16.70;35.10;;;;;;4959159;28;20090;-88
2022/04/10 11:17:33;;;;;;;2.33;0.70;;;16.70;34.90;;;;;;4959175;28;20339;-88
2022/04/10 11:20:00;;;;;;;;;;;16.90;34.30;;;;;;4959466;28;20023;-89
2022/04/10 11:22:33;;;;;;;1.23;0.40;;;16.90;33.20;;;;;;4976339;28;19929;-88
2022/04/10 11:25:00;;;;;;;1.67;0.50;;;16.60;32.20;;;;;;4959239;28;20027;-88
2022/04/10 11:27:42;;;;;;;2.10;0.65;;;16.40;34.30;;;;;;4958991;28;20057;-89
2022/04/10 11:30:09;;;;;;;1.73;0.60;;;16.60;34.90;;;;;;4976323;28;20499;-88
2022/04/10 11:32:43;;;;;;;1.90;0.70;;;16.60;34.30;;;;;;4959199;28;20089;-89
2022/04/10 11:35:28;;;;;;;3.28;0.80;;;16.50;34.00;;;;;;4958968;28;20491;-89
2022/04/10 11:37:59;;;;;;;3.08;0.95;;;16.20;33.80;;;;;;4959144;28;20114;-87
2022/04/10 11:40:29;;;;;;;3.53;0.85;;;16.00;33.70;;;;;;4959049;28;20027;-88
2022/04/10 11:42:56;;;;;;;1.92;0.60;;;15.50;32.90;;;;;;4958482;28;20137;-89
2022/04/10 11:45:24;;;;;;;3.13;1.30;;;15.40;32.10;;;;;;4958681;28;20027;-86
2022/04/10 11:47:50;;;;;;;5.38;1.60;;;15.50;32.10;;;;;;4958350;28;20042;-88
2022/04/10 11:50:19;;;;;;;4.05;1.25;;;15.40;32.30;;;;;;4958626;28;20023;-88
2022/04/10 11:53:04;;;;;;;2.65;0.50;;;15.50;33.10;;;;;;4958330;28;20066;-88
2022/04/10 11:55:32;;;;;;;0.90;0.40;;;15.50;30.60;;;;;;4958312;28;20066;-88
2022/04/10 11:57:58;;;;;;;1.20;0.57;;;15.40;31.60;;;;;;4958869;28;20030;-90
2022/04/10 12:00:24;;;;;;;5.55;0.93;;;15.60;31.60;;;;;;4976319;28;20107;-88
2022/04/10 12:02:53;;;;;;;;;;;15.70;33.60;;;;;;4958715;28;20054;-88
2022/04/10 12:05:31;;;;;;;1.92;0.60;;;15.80;33.60;;;;;;4958721;28;19913;-88
2022/04/10 12:08:01;;;;;;;1.20;0.45;;;16.00;31.60;;;;;;4958665;28;20121;-87
2022/04/10 12:10:27;;;;;;;7.93;1.13;;;16.00;30.50;;;;;;4960768;28;20023;-88
2022/04/10 12:12:53;;;;;;;;;;;16.00;30.70;;;;;;4959174;28;20122;-88
2022/04/10 12:15:20;;;;;;;2.72;1.10;;;15.90;32.20;;;;;;4958052;28;20009;-88
2022/04/10 12:17:46;;;;;;;3.30;0.80;;;15.30;31.70;;;;;;4956989;28;20542;-88
2022/04/10 12:20:14;;;;;;;5.25;1.85;;;15.10;33.60;;;;;;4957728;28;20034;-88
2022/04/10 12:22:40;;;;;;;1.30;0.65;;;14.90;33.90;;;;;;4958048;28;20031;-89
2022/04/10 12:25:07;;;;;;;2.55;0.88;;;14.80;34.40;;;;;;4958032;28;20030;-89
2022/04/10 12:27:33;;;;;;;5.18;0.73;;;14.70;34.80;;;;;;4975103;28;20121;-87
2022/04/10 12:30:05;;;;;;;3.55;1.23;;;14.60;34.00;;;;;;4957742;28;20031;-87
2022/04/10 12:32:31;;;;;;;5.75;2.92;;;14.60;33.40;;;;;;4957771;28;20026;-89
2022/04/10 12:35:05;;;;;;;;;;;14.10;35.00;;;;;;4958308;28;20505;-88
2022/04/10 12:37:31;;;;;;;4.20;0.88;;;13.70;36.40;;;;;;4957845;28;19937;-88
2022/04/10 12:39:58;;;;;;;;;;;13.40;34.90;;;;;;4975444;28;20521;-88
2022/04/10 12:42:24;;;;;;;3.70;1.67;;;13.40;32.90;;;;;;4957762;28;19906;-88
2022/04/10 12:44:57;;;;;;;2.53;0.68;;;13.40;32.70;;;;;;4957896;28;20093;-88
2022/04/10 12:47:46;;;;;;;2.03;0.77;;;13.40;31.70;;;;;;4958147;28;20086;-87
2022/04/10 12:50:14;;;;;;;2.05;0.68;;;13.60;31.40;;;;;;4957713;28;20039;-88
2022/04/10 12:52:41;;;;;;;3.40;1.08;;;13.70;31.10;;;;;;4957433;28;20022;-88
2022/04/10 12:55:20;;;;;;;2.22;0.80;;;14.00;32.00;;;;;;4957470;28;20033;-88
2022/04/10 12:57:57;;;;;;;2.53;0.70;;;14.20;32.80;;;;;;4957589;28;20032;-89
2022/04/10 13:00:24;;;;;;;3.50;0.68;;;14.30;33.10;;;;;;4957956;28;20029;-89
2022/04/10 13:02:50;;;;;;;5.05;2.25;;;14.40;32.20;;;;;;4957554;28;20030;-89
2022/04/10 13:05:16;;;;;;;;;;;14.40;34.80;;;;;;4957743;28;20086;-88
2022/04/10 13:08:00;;;;;;;3.03;0.70;;;14.40;35.40;;;;;;4957034;28;20354;-88
2022/04/10 13:10:27;;;;;;;1.70;0.50;;;14.50;35.80;;;;;;4957298;28;20031;-89